Time;durP1;ratioP1;P1;durP2;ratioP2;P2;SDS_P1;SDS_P2;PMS_P1;PMS_P2;Temp;Humidity;BMP_temperature;BMP_pressure;BME280_temperature;BME280_humidity;BME280_pressure;Samples;Min_cycle;Max_cycle;Signal;HPM_P1;HPM_P2
2021/04/12 00:01:52;;;;;;;10.93;5.22;;;;;;;0.29;100.00;101710.09;5033665;28;20052;-86
2021/04/12 00:04:25;;;;;;;8.85;5.50;;;;;;;0.32;100.00;101717.00;5048600;28;20128;-85
2021/04/12 00:06:58;;;;;;;11.02;4.88;;;;;;;0.29;100.00;101715.38;5052463;28;20048;-84
2021/04/12 00:09:31;;;;;;;9.00;5.45;;;;;;;0.25;100.00;101715.59;5051881;28;20044;-81
2021/04/12 00:12:02;;;;;;;9.20;4.80;;;;;;;0.21;100.00;101715.75;5048845;28;20110;-82
2021/04/12 00:14:35;;;;;;;8.38;4.85;;;;;;;0.05;100.00;101712.13;5055791;28;20080;-84
2021/04/12 00:17:07;;;;;;;8.93;5.80;;;;;;;-0.08;100.00;101713.66;5046049;28;20095;-86
2021/04/12 00:20:00;;;;;;;10.68;5.47;;;;;;;-0.16;100.00;101721.09;5030855;28;20055;-85
2021/04/12 00:22:42;;;;;;;8.77;5.65;;;;;;;-0.27;100.00;101716.31;5050565;28;20052;-78
2021/04/12 00:25:19;;;;;;;14.60;6.65;;;;;;;-0.27;100.00;101714.50;5042325;28;20075;-83
2021/04/12 00:27:49;;;;;;;11.88;6.80;;;;;;;-0.27;100.00;101717.16;5049028;28;20102;-87
2021/04/12 00:30:22;;;;;;;11.75;5.70;;;;;;;-0.31;100.00;101715.59;5047644;28;20124;-82
2021/04/12 00:32:55;;;;;;;9.50;6.22;;;;;;;-0.34;100.00;101728.09;5030835;28;20066;-80
2021/04/12 00:35:23;;;;;;;14.07;6.40;;;;;;;-0.29;100.00;101719.03;5046682;28;20041;-81
2021/04/12 00:37:54;;;;;;;10.43;5.50;;;;;;;-0.37;100.00;101726.44;5045792;28;20037;-80
2021/04/12 00:40:46;;;;;;;10.80;5.85;;;;;;;-0.47;100.00;101728.63;5049653;28;20477;-83
2021/04/12 00:43:21;;;;;;;10.10;6.18;;;;;;;-0.44;100.00;101738.19;5033976;28;20049;-78
2021/04/12 00:46:16;;;;;;;10.80;5.95;;;;;;;-0.39;100.00;101738.84;5031111;28;20080;-80
2021/04/12 00:48:57;;;;;;;11.02;6.07;;;;;;;-0.38;100.00;101731.78;5027491;28;20045;-82
2021/04/12 00:51:40;;;;;;;13.45;5.97;;;;;;;-0.28;100.00;101740.97;5048114;28;20056;-81
2021/04/12 00:54:36;;;;;;;9.18;5.68;;;;;;;-0.22;100.00;101742.47;5009525;28;20067;-83
2021/04/12 00:57:11;;;;;;;8.65;5.57;;;;;;;-0.07;100.00;101736.47;4996440;28;20258;-78
2021/04/12 00:59:53;;;;;;;8.90;5.45;;;;;;;-0.22;100.00;101737.22;5043841;28;20053;-81
2021/04/12 01:02:18;;;;;;;10.48;6.40;;;;;;;-0.14;100.00;101740.34;5050553;28;20036;-80
2021/04/12 01:04:51;;;;;;;8.23;5.90;;;;;;;-0.33;100.00;101735.91;5056438;28;20052;-78
2021/04/12 01:07:29;;;;;;;10.13;6.30;;;;;;;-0.29;100.00;101742.78;5050901;28;20538;-78
2021/04/12 01:10:21;;;;;;;9.30;5.65;;;;;;;-0.30;100.00;101745.47;5029813;28;20098;-79
2021/04/12 01:13:20;;;;;;;11.40;6.53;;;;;;;-0.28;100.00;101739.19;5046014;28;20053;-82
2021/04/12 01:15:55;;;;;;;10.15;6.25;;;;;;;-0.53;100.00;101755.28;5045297;28;20056;-78
2021/04/12 01:18:58;;;;;;;12.18;6.50;;;;;;;-0.66;100.00;101747.97;5043130;28;20052;-78
2021/04/12 01:21:51;;;;;;;10.05;6.15;;;;;;;-0.60;100.00;101745.09;5045896;28;20044;-84
2021/04/12 01:24:25;;;;;;;12.65;6.68;;;;;;;-0.55;100.00;101748.34;5018783;28;20119;-82
2021/04/12 01:27:07;;;;;;;11.02;6.25;;;;;;;-0.54;100.00;101750.09;5036787;28;20489;-84
2021/04/12 01:30:06;;;;;;;10.02;6.18;;;;;;;-0.48;100.00;101752.44;5027531;28;20063;-81
2021/04/12 01:32:38;;;;;;;12.48;5.85;;;;;;;-0.42;100.00;101746.03;5032671;28;20044;-80
2021/04/12 01:35:28;;;;;;;11.35;6.22;;;;;;;-0.35;100.00;101747.44;5054950;28;20047;-80
2021/04/12 01:38:12;;;;;;;9.40;6.30;;;;;;;-0.33;100.00;101751.72;5044325;28;20392;-79
2021/04/12 01:41:02;;;;;;;9.77;6.35;;;;;;;-0.24;100.00;101753.09;5047895;28;20053;-78
2021/04/12 01:43:40;;;;;;;12.90;5.88;;;;;;;-0.15;100.00;101752.66;5041184;28;20581;-78
2021/04/12 01:46:26;;;;;;;14.55;6.65;;;;;;;-0.05;100.00;101763.66;5023886;28;20041;-79
2021/04/12 01:49:26;;;;;;;9.95;4.93;;;;;;;-0.04;100.00;101773.28;5048350;28;21013;-76
2021/04/12 01:52:06;;;;;;;10.65;5.65;;;;;;;-0.05;100.00;101766.28;5053312;28;20044;-83
2021/04/12 01:54:48;;;;;;;13.00;5.88;;;;;;;-0.01;100.00;101773.97;5052001;28;20045;-82
2021/04/12 01:57:34;;;;;;;11.90;6.68;;;;;;;-0.05;100.00;101772.41;5048274;28;20441;-78
2021/04/12 02:00:17;;;;;;;12.98;6.05;;;;;;;0.00;100.00;101772.22;5042512;28;20122;-80
2021/04/12 02:03:09;;;;;;;10.77;6.20;;;;;;;0.04;100.00;101776.41;5024766;28;20046;-79
2021/04/12 02:06:02;;;;;;;11.35;6.63;;;;;;;0.01;100.00;101792.38;5045212;28;20570;-83
2021/04/12 02:08:46;;;;;;;14.07;6.85;;;;;;;-0.06;100.00;101780.41;5018857;28;20051;-83
2021/04/12 02:11:21;;;;;;;8.63;5.65;;;;;;;-0.22;100.00;101795.25;5046208;28;20032;-82
2021/04/12 02:14:02;;;;;;;10.65;6.20;;;;;;;-0.19;100.00;101792.47;5023561;28;20473;-81
2021/04/12 02:16:37;;;;;;;13.40;6.10;;;;;;;-0.18;100.00;101796.81;5034477;28;20044;-75
2021/04/12 02:19:21;;;;;;;13.00;6.70;;;;;;;-0.17;100.00;101804.66;5025425;28;20122;-83
2021/04/12 02:22:21;;;;;;;9.52;6.40;;;;;;;-0.16;100.00;101803.72;5034396;28;20044;-78
2021/04/12 02:25:18;;;;;;;12.32;6.63;;;;;;;-0.21;100.00;101796.94;5012821;28;20102;-80
2021/04/12 02:28:22;;;;;;;11.38;6.70;;;;;;;-0.18;100.00;101796.81;5046810;28;20427;-83
2021/04/12 02:31:07;;;;;;;11.05;5.78;;;;;;;-0.18;100.00;101799.44;5021961;28;20041;-79
2021/04/12 02:33:41;;;;;;;12.10;6.80;;;;;;;-0.19;100.00;101803.88;5028011;28;20045;-80
2021/04/12 02:36:52;;;;;;;12.55;6.20;;;;;;;-0.32;100.00;101808.81;5047292;28;20064;-79
2021/04/12 02:39:50;;;;;;;12.75;6.53;;;;;;;-0.26;100.00;101810.34;4955103;28;20077;-78
2021/04/12 02:42:22;;;;;;;9.20;4.77;;;;;;;-0.35;100.00;101805.47;4982596;28;20866;-82
2021/04/12 02:44:55;;;;;;;13.38;6.03;;;;;;;-0.29;100.00;101805.19;5024397;28;20507;-82
2021/04/12 02:47:21;;;;;;;9.77;5.75;;;;;;;-0.31;100.00;101804.44;5040795;28;20047;-80
2021/04/12 02:50:10;;;;;;;11.10;6.22;;;;;;;-0.25;100.00;101812.91;5042478;28;20120;-80
2021/04/12 02:52:56;;;;;;;10.65;5.85;;;;;;;-0.23;100.00;101807.59;5040449;28;20055;-81
2021/04/12 02:55:40;;;;;;;11.93;5.78;;;;;;;-0.24;100.00;101814.63;5027713;28;20129;-83
2021/04/12 02:58:36;;;;;;;12.10;6.03;;;;;;;-0.18;100.00;101817.91;5035532;28;20088;-82
2021/04/12 03:01:08;;;;;;;11.35;6.25;;;;;;;-0.21;100.00;101821.53;5030236;28;20041;-80
2021/04/12 03:03:52;;;;;;;11.82;6.20;;;;;;;-0.21;100.00;101815.41;5047917;28;20443;-80
2021/04/12 03:06:55;;;;;;;11.65;4.85;;;;;;;-0.27;100.00;101825.31;5046094;28;20288;-79
2021/04/12 03:09:31;;;;;;;10.80;6.30;;;;;;;-0.29;100.00;101821.91;5024472;28;20045;-80
2021/04/12 03:12:34;;;;;;;10.68;6.13;;;;;;;-0.22;100.00;101826.91;5029762;28;20706;-79
2021/04/12 03:15:08;;;;;;;14.38;7.03;;;;;;;-0.21;100.00;101825.97;5007632;28;20043;-82
2021/04/12 03:18:02;;;;;;;11.95;6.57;;;;;;;-0.21;100.00;101837.38;5048137;28;20040;-82
2021/04/12 03:20:45;;;;;;;11.32;6.38;;;;;;;-0.31;100.00;101844.84;5042636;28;20657;-79
2021/04/12 03:23:26;;;;;;;13.77;6.72;;;;;;;-0.36;100.00;101838.06;4994510;28;20447;-79
2021/04/12 03:26:07;;;;;;;11.45;6.38;;;;;;;-0.46;100.00;101850.81;5030490;28;20041;-80
2021/04/12 03:29:08;;;;;;;13.40;7.38;;;;;;;-0.49;100.00;101843.00;5047851;28;20453;-78
2021/04/12 03:32:03;;;;;;;10.80;6.88;;;;;;;-0.61;100.00;101847.03;5041536;28;20033;-79
2021/04/12 03:34:36;;;;;;;11.48;6.90;;;;;;;-0.80;100.00;101843.50;5026506;28;20086;-82
2021/04/12 03:37:35;;;;;;;17.73;7.70;;;;;;;-0.88;100.00;101849.09;5047773;28;20052;-81
2021/04/12 03:40:19;;;;;;;14.90;7.57;;;;;;;-0.94;100.00;101852.00;5027286;28;20048;-83
2021/04/12 03:43:03;;;;;;;11.77;7.72;;;;;;;-1.09;100.00;101850.84;5025133;28;20067;-79
2021/04/12 03:46:06;;;;;;;14.93;8.35;;;;;;;-1.00;100.00;101849.63;5051634;28;20382;-83
2021/04/12 03:48:53;;;;;;;14.38;8.63;;;;;;;-0.95;100.00;101847.63;5023944;28;20100;-81
2021/04/12 03:52:06;;;;;;;14.25;9.15;;;;;;;-1.01;100.00;101853.16;5025335;28;20041;-79
2021/04/12 03:54:41;;;;;;;14.57;7.75;;;;;;;-0.99;100.00;101851.31;4995710;28;20045;-79
2021/04/12 03:57:43;;;;;;;11.93;7.88;;;;;;;-0.93;100.00;101848.44;5018298;28;20393;-80
2021/04/12 04:00:27;;;;;;;13.88;7.90;;;;;;;-0.94;100.00;101858.13;5030815;28;20136;-78
2021/04/12 04:03:22;;;;;;;12.93;8.93;;;;;;;-0.84;100.00;101855.94;5051650;28;20049;-78
2021/04/12 04:05:50;;;;;;;15.70;8.40;;;;;;;-0.94;100.00;101867.81;5028196;28;20045;-78
2021/04/12 04:08:29;;;;;;;14.15;8.43;;;;;;;-1.01;100.00;101861.06;5046970;28;20043;-80
2021/04/12 04:11:08;;;;;;;13.82;7.68;;;;;;;-1.10;100.00;101864.06;5029269;28;20056;-81
2021/04/12 04:13:45;;;;;;;13.00;9.10;;;;;;;-1.04;100.00;101858.56;5022777;28;20040;-80
2021/04/12 04:16:23;;;;;;;17.65;9.02;;;;;;;-0.97;100.00;101867.94;5045024;28;20178;-77
2021/04/12 04:19:01;;;;;;;13.88;8.85;;;;;;;-0.92;100.00;101871.25;5047446;28;20061;-81
2021/04/12 04:21:49;;;;;;;17.42;9.05;;;;;;;-0.92;100.00;101872.09;5048451;28;20059;-81
2021/04/12 04:24:48;;;;;;;15.55;9.38;;;;;;;-0.90;100.00;101866.75;5026808;28;20102;-80
2021/04/12 04:27:38;;;;;;;20.67;10.05;;;;;;;-0.84;100.00;101871.75;5011833;28;20063;-84
2021/04/12 04:30:32;;;;;;;20.58;9.07;;;;;;;-0.96;100.00;101867.84;5021800;28;20061;-83
2021/04/12 04:33:35;;;;;;;20.30;9.48;;;;;;;-0.92;100.00;101868.59;5024190;28;20071;-79
2021/04/12 04:36:21;;;;;;;17.58;9.43;;;;;;;-0.98;100.00;101863.56;5028141;28;20444;-77
2021/04/12 04:39:10;;;;;;;17.38;9.43;;;;;;;-0.94;100.00;101873.06;5033162;28;20069;-78
2021/04/12 04:42:07;;;;;;;14.82;9.23;;;;;;;-0.97;100.00;101873.19;5042631;28;20045;-77
2021/04/12 04:45:01;;;;;;;15.13;9.15;;;;;;;-0.93;100.00;101873.00;5045990;28;20052;-84
2021/04/12 04:47:50;;;;;;;14.85;9.32;;;;;;;-0.86;100.00;101876.25;5043502;28;20049;-83
2021/04/12 04:50:53;;;;;;;16.40;10.20;;;;;;;-0.93;100.00;101877.41;5031101;28;20041;-82
2021/04/12 04:54:09;;;;;;;14.35;10.95;;;;;;;-0.91;100.00;101881.69;5013069;28;20421;-78
2021/04/12 04:57:06;;;;;;;19.50;11.85;;;;;;;-0.80;100.00;101883.03;4944315;28;20046;-83
2021/04/12 05:00:11;;;;;;;16.10;10.65;;;;;;;-0.79;100.00;101885.59;4930156;28;20387;-79
2021/04/12 05:02:46;;;;;;;19.45;12.50;;;;;;;-0.72;100.00;101894.97;5044569;28;20485;-82
2021/04/12 05:05:32;;;;;;;19.75;12.30;;;;;;;-0.65;100.00;101900.00;5024539;28;20040;-85
2021/04/12 05:08:00;;;;;;;19.33;12.82;;;;;;;-0.64;100.00;101896.41;5043038;28;20045;-83
2021/04/12 05:10:46;;;;;;;19.35;11.90;;;;;;;-0.60;100.00;101905.94;5037808;28;20068;-83
2021/04/12 05:13:32;;;;;;;22.67;13.30;;;;;;;-0.57;100.00;101901.38;5030368;28;20061;-83
2021/04/12 05:16:16;;;;;;;20.63;12.88;;;;;;;-0.55;100.00;101907.41;4993467;28;20068;-80
2021/04/12 05:19:03;;;;;;;18.98;12.82;;;;;;;-0.55;100.00;101915.31;5037443;28;20046;-87
2021/04/12 05:22:10;;;;;;;19.90;12.90;;;;;;;-0.57;100.00;101916.34;5031294;28;20045;-80
2021/04/12 05:24:53;;;;;;;21.88;13.38;;;;;;;-0.56;100.00;101929.44;5026120;28;20115;-78
2021/04/12 05:27:52;;;;;;;20.90;14.20;;;;;;;-0.55;100.00;101925.88;5017362;28;20044;-81
2021/04/12 05:30:20;;;;;;;;;;;;;;;-0.57;100.00;101933.00;5015052;28;20045;-83
2021/04/12 05:33:04;;;;;;;26.48;16.63;;;;;;;-0.54;100.00;101932.03;5041000;28;20115;-82
2021/04/12 05:35:48;;;;;;;24.25;15.85;;;;;;;-0.44;100.00;101938.63;5048155;28;20045;-81
2021/04/12 05:39:08;;;;;;;26.65;16.20;;;;;;;-0.45;100.00;101931.63;5011320;28;20041;-82
2021/04/12 05:42:10;;;;;;;25.67;16.17;;;;;;;-0.36;100.00;101935.66;4950405;28;20125;-84
2021/04/12 05:44:57;;;;;;;23.38;14.68;;;;;;;-0.31;100.00;101942.44;5037974;28;20040;-81
2021/04/12 05:47:53;;;;;;;24.63;17.20;;;;;;;-0.20;100.00;101942.00;5043283;28;20090;-83
2021/04/12 05:50:34;;;;;;;22.08;14.73;;;;;;;-0.17;100.00;101941.84;5005327;28;20057;-84
2021/04/12 05:53:27;;;;;;;23.50;14.55;;;;;;;-0.10;100.00;101947.72;5046402;28;20064;-83
2021/04/12 05:56:05;;;;;;;24.10;15.27;;;;;;;-0.03;100.00;101952.66;5017262;28;20092;-80
2021/04/12 05:59:08;;;;;;;23.17;16.45;;;;;;;0.04;100.00;101955.88;5022672;28;20045;-82
2021/04/12 06:01:45;;;;;;;19.83;13.70;;;;;;;0.09;100.00;101961.81;5019574;28;20050;-80
2021/04/12 06:04:27;;;;;;;21.52;11.93;;;;;;;0.10;100.00;101966.16;5027736;28;20041;-82
2021/04/12 06:07:11;;;;;;;20.67;13.77;;;;;;;0.14;100.00;101962.44;5046450;28;20041;-82
2021/04/12 06:09:52;;;;;;;19.88;13.07;;;;;;;0.22;100.00;101965.59;5042950;28;20159;-79
2021/04/12 06:12:34;;;;;;;18.88;12.40;;;;;;;0.25;100.00;101972.53;5044020;28;20063;-87
2021/04/12 06:15:25;;;;;;;19.60;12.27;;;;;;;0.33;100.00;101969.56;5047985;28;20045;-78
2021/04/12 06:18:27;;;;;;;24.67;14.13;;;;;;;0.44;100.00;101980.50;5048523;28;20037;-81
2021/04/12 06:21:10;;;;;;;21.45;14.18;;;;;;;0.62;100.00;101969.06;5027525;28;20139;-80
2021/04/12 06:23:51;;;;;;;16.15;11.15;;;;;;;0.61;100.00;101975.28;5043865;28;20041;-84
2021/04/12 06:26:36;;;;;;;17.65;12.13;;;;;;;0.70;100.00;101973.16;5030250;28;20171;-81
2021/04/12 06:29:30;;;;;;;17.15;10.93;;;;;;;0.78;100.00;101986.88;5022581;28;20091;-79
2021/04/12 06:32:32;;;;;;;16.42;11.98;;;;;;;0.93;100.00;101982.63;5044340;28;20052;-81
2021/04/12 06:35:12;;;;;;;17.23;11.35;;;;;;;1.05;100.00;101972.31;5028827;28;20128;-81
2021/04/12 06:38:10;;;;;;;14.65;8.82;;;;;;;1.00;100.00;101990.19;5045249;28;20565;-80
2021/04/12 06:41:13;;;;;;;14.20;9.27;;;;;;;1.03;100.00;101982.09;5017931;28;20490;-80
2021/04/12 06:43:54;;;;;;;14.85;10.23;;;;;;;1.10;100.00;101988.81;5047589;28;20036;-82
2021/04/12 06:46:50;;;;;;;16.73;10.32;;;;;;;1.31;100.00;102000.13;5048044;28;20064;-78
2021/04/12 06:49:43;;;;;;;11.85;7.57;;;;;;;1.32;100.00;102007.16;5026507;28;20041;-84
2021/04/12 06:52:30;;;;;;;12.70;9.20;;;;;;;1.39;100.00;102005.06;5028777;28;20064;-84
2021/04/12 06:55:05;;;;;;;11.57;7.97;;;;;;;1.38;100.00;102005.13;5046861;28;20088;-85
2021/04/12 06:58:05;;;;;;;13.07;8.00;;;;;;;1.44;100.00;102018.94;5046196;28;20036;-83
2021/04/12 07:01:02;;;;;;;12.18;7.40;;;;;;;1.50;100.00;102020.41;5038719;28;20375;-79
2021/04/12 07:03:49;;;;;;;13.85;7.43;;;;;;;1.53;100.00;102020.25;5027378;28;20042;-83
2021/04/12 07:06:43;;;;;;;11.88;7.75;;;;;;;1.68;100.00;102026.56;5026804;28;20462;-81
2021/04/12 07:09:14;;;;;;;13.05;6.72;;;;;;;1.72;100.00;102025.47;5021095;28;20433;-77
2021/04/12 07:12:37;;;;;;;11.02;7.53;;;;;;;1.80;99.45;102037.38;5039393;28;20041;-83
2021/04/12 07:15:33;;;;;;;13.32;6.63;;;;;;;1.84;98.85;102027.50;4923016;29;20035;-80
2021/04/12 07:18:11;;;;;;;9.10;6.65;;;;;;;1.94;98.57;102022.59;4945802;28;20141;-79
2021/04/12 07:21:02;;;;;;;11.82;6.43;;;;;;;2.01;97.93;102030.16;4997423;28;20433;-85
2021/04/12 07:24:04;;;;;;;9.77;5.50;;;;;;;2.13;97.77;102035.72;5013347;28;20049;-82
2021/04/12 07:26:54;;;;;;;10.85;6.55;;;;;;;2.22;96.82;102032.63;5027384;28;20080;-87
2021/04/12 07:29:42;;;;;;;8.27;5.95;;;;;;;2.30;97.17;102033.06;5005103;28;20050;-79
2021/04/12 07:32:41;;;;;;;8.45;5.93;;;;;;;2.42;96.23;102036.88;4985973;28;20076;-79
2021/04/12 07:35:19;;;;;;;;;;;;;;;2.53;96.03;102044.25;5025357;28;20044;-83
2021/04/12 07:38:09;;;;;;;7.68;5.13;;;;;;;2.53;95.56;102044.25;5040887;28;19913;-78
2021/04/12 07:40:49;;;;;;;8.93;5.53;;;;;;;2.64;95.19;102041.88;5042890;28;20044;-82
2021/04/12 07:44:06;;;;;;;7.97;5.10;;;;;;;2.86;95.13;102047.75;5037663;28;20048;-82
2021/04/12 07:47:10;;;;;;;9.23;4.57;;;;;;;2.94;93.60;102039.38;5023085;28;20044;-80
2021/04/12 07:49:53;;;;;;;9.73;4.22;;;;;;;3.03;93.18;102052.13;5031523;28;20037;-81
2021/04/12 07:52:37;;;;;;;9.60;4.32;;;;;;;3.10;92.52;102044.66;5043544;28;20505;-80
2021/04/12 07:55:06;;;;;;;6.90;3.92;;;;;;;3.24;91.94;102047.41;5034978;28;20060;-81
2021/04/12 07:57:50;;;;;;;9.17;4.23;;;;;;;3.41;92.86;102042.94;5042556;28;20041;-83
2021/04/12 08:00:34;;;;;;;7.45;3.40;;;;;;;3.44;90.35;102050.75;5030067;28;20333;-81
2021/04/12 08:03:33;;;;;;;5.65;3.55;;;;;;;3.47;90.02;102055.88;5027668;28;20096;-83
2021/04/12 08:06:25;;;;;;;9.23;3.47;;;;;;;3.59;90.01;102058.66;5028708;28;20126;-84
2021/04/12 08:09:31;;;;;;;7.25;3.30;;;;;;;3.76;90.41;102065.66;5043711;28;20036;-83
2021/04/12 08:12:34;;;;;;;9.13;3.03;;;;;;;3.99;89.54;102061.66;5052183;28;20045;-80
2021/04/12 08:15:18;;;;;;;6.10;2.97;;;;;;;4.16;87.75;102063.31;5035928;28;20128;-88
2021/04/12 08:18:17;;;;;;;4.80;2.65;;;;;;;4.11;86.76;102069.84;5045553;28;20037;-86
2021/04/12 08:20:57;;;;;;;7.22;2.40;;;;;;;4.27;85.33;102068.84;5049695;28;20045;-77
2021/04/12 08:23:44;;;;;;;3.55;1.52;;;;;;;4.30;83.89;102073.97;5029202;28;20033;-80
2021/04/12 08:26:40;;;;;;;6.35;2.03;;;;;;;4.36;82.61;102072.75;5024157;28;20122;-80
2021/04/12 08:29:38;;;;;;;5.28;2.10;;;;;;;4.44;82.42;102077.59;4997196;28;20049;-84
2021/04/12 08:32:25;;;;;;;7.00;2.28;;;;;;;4.44;82.01;102082.91;5047859;28;20071;-81
2021/04/12 08:35:28;;;;;;;4.05;1.80;;;;;;;4.66;81.82;102085.09;5042670;28;20030;-84
2021/04/12 08:38:31;;;;;;;7.38;1.75;;;;;;;4.74;80.33;102091.66;5030227;28;20045;-81
2021/04/12 08:41:34;;;;;;;8.02;1.55;;;;;;;4.58;78.21;102090.91;5048341;28;20044;-88
2021/04/12 08:44:53;;;;;;;5.13;1.73;;;;;;;4.63;78.48;102088.84;5045708;28;20523;-84
2021/04/12 08:47:41;;;;;;;6.97;1.83;;;;;;;4.55;78.80;102090.25;4954962;28;20043;-87
2021/04/12 08:50:23;;;;;;;5.97;1.90;;;;;;;4.74;79.14;102091.66;4998231;28;20068;-89
2021/04/12 08:53:10;;;;;;;5.05;1.52;;;;;;;4.81;78.36;102092.16;5030665;28;20047;-82
2021/04/12 08:56:13;;;;;;;5.82;1.42;;;;;;;4.84;75.91;102089.31;5052562;28;20075;-88
2021/04/12 08:58:50;;;;;;;3.25;1.35;;;;;;;4.87;75.59;102101.56;5017226;28;20284;-81
2021/04/12 09:01:43;;;;;;;5.32;1.73;;;;;;;4.80;75.31;102095.75;5027687;28;20033;-84
2021/04/12 09:04:40;;;;;;;4.43;1.45;;;;;;;4.92;74.31;102094.13;5013418;28;20546;-83
2021/04/12 09:07:45;;;;;;;5.53;1.88;;;;;;;5.16;74.88;102099.72;5043100;28;20128;-84
2021/04/12 09:10:16;;;;;;;7.18;2.00;;;;;;;5.18;74.49;102101.34;5031002;28;20040;-84
2021/04/12 09:13:06;;;;;;;5.10;1.60;;;;;;;5.43;72.71;102099.75;5048976;28;20072;-85
2021/04/12 09:15:42;;;;;;;4.57;1.50;;;;;;;5.58;73.91;102104.13;5048306;28;20485;-87
2021/04/12 09:18:34;;;;;;;4.90;1.50;;;;;;;5.52;69.56;102106.28;5031906;28;20045;-85
2021/04/12 09:21:43;;;;;;;6.10;1.13;;;;;;;5.35;70.07;102105.59;5048900;28;20048;-82
2021/04/12 09:24:26;;;;;;;;;;;;;;;5.43;70.95;102103.28;4979392;28;20037;-82
2021/04/12 09:27:04;;;;;;;2.95;1.20;;;;;;;5.32;69.21;102097.81;5046316;28;19917;-83
2021/04/12 09:29:41;;;;;;;6.07;1.70;;;;;;;5.35;69.38;102108.25;5042593;28;20052;-81
2021/04/12 09:32:39;;;;;;;3.67;1.35;;;;;;;5.46;69.38;102099.56;5047810;28;20098;-80
2021/04/12 09:35:10;;;;;;;3.35;1.10;;;;;;;5.47;68.73;102095.97;5027239;28;20041;-82
2021/04/12 09:38:13;;;;;;;2.75;1.13;;;;;;;5.54;67.41;102091.09;5048615;28;20040;-86
2021/04/12 09:41:04;;;;;;;5.20;1.45;;;;;;;5.79;66.65;102096.50;5052517;28;20520;-84
2021/04/12 09:44:07;;;;;;;1.85;1.10;;;;;;;5.71;67.30;102100.63;5020587;28;20665;-80
2021/04/12 09:47:10;;;;;;;4.32;1.52;;;;;;;5.56;68.32;102102.50;5012034;28;20037;-86
2021/04/12 09:49:54;;;;;;;4.53;1.80;;;;;;;5.82;69.80;102101.63;5030587;28;20128;-87
2021/04/12 09:52:39;;;;;;;4.45;1.50;;;;;;;5.77;66.08;102100.22;5023537;28;20039;-85
2021/04/12 09:55:43;;;;;;;4.53;1.42;;;;;;;5.80;65.46;102095.53;5039806;28;20057;-79
2021/04/12 09:58:27;;;;;;;3.45;1.20;;;;;;;5.96;66.08;102100.75;4994566;28;20256;-82
2021/04/12 10:01:22;;;;;;;2.85;1.40;;;;;;;5.93;64.21;102097.38;5029436;28;20037;-80
2021/04/12 10:04:35;;;;;;;4.72;1.77;;;;;;;5.95;65.23;102104.34;4999057;28;20045;-82
2021/04/12 10:07:13;;;;;;;5.65;1.40;;;;;;;6.04;65.21;102110.88;5033893;28;20064;-85
2021/04/12 10:10:13;;;;;;;3.53;1.20;;;;;;;6.06;65.03;102107.16;5041485;28;20511;-82
2021/04/12 10:13:01;;;;;;;5.35;1.50;;;;;;;6.05;66.54;102110.78;5025459;28;20130;-85
2021/04/12 10:15:44;;;;;;;5.55;1.95;;;;;;;6.04;66.87;102103.78;4993572;28;20049;-80
2021/04/12 10:18:26;;;;;;;2.78;1.45;;;;;;;5.95;67.93;102106.19;5027884;28;20102;-83
2021/04/12 10:21:37;;;;;;;3.47;1.20;;;;;;;6.00;70.89;102104.06;5045341;28;20041;-83
2021/04/12 10:24:15;;;;;;;5.10;1.60;;;;;;;6.00;69.61;102110.25;5037737;28;20037;-86
2021/04/12 10:27:05;;;;;;;4.28;1.40;;;;;;;5.87;68.67;102112.00;5048946;28;20041;-83
2021/04/12 10:29:44;;;;;;;2.92;0.90;;;;;;;5.74;68.45;102119.06;5041382;28;20051;-82
2021/04/12 10:32:18;;;;;;;4.60;1.50;;;;;;;5.50;72.95;102127.72;5023222;28;20455;-81
2021/04/12 10:34:58;;;;;;;4.47;1.80;;;;;;;5.05;78.27;102132.31;5046419;28;20041;-85
2021/04/12 10:37:46;;;;;;;6.93;2.22;;;;;;;4.67;81.95;102143.53;5028834;28;20388;-83
2021/04/12 10:40:32;;;;;;;6.55;2.55;;;;;;;4.40;83.77;102151.38;5003796;28;20045;-86
2021/04/12 10:43:49;;;;;;;5.20;2.20;;;;;;;4.12;84.83;102160.09;5047508;28;20044;-84
2021/04/12 10:46:22;;;;;;;5.28;2.53;;;;;;;3.81;86.76;102172.47;4983743;28;20064;-85
2021/04/12 10:49:15;;;;;;;4.53;2.20;;;;;;;3.48;87.33;102169.03;5025369;28;20034;-89
2021/04/12 10:52:07;;;;;;;4.93;2.63;;;;;;;3.25;88.41;102179.13;5042926;28;20037;-84
2021/04/12 10:54:44;;;;;;;5.22;2.28;;;;;;;2.97;89.35;102178.91;5047276;28;20115;-82
2021/04/12 10:57:25;;;;;;;4.97;2.13;;;;;;;2.84;90.54;102183.97;5045770;28;20044;-80
2021/04/12 11:00:11;;;;;;;4.03;2.50;;;;;;;2.76;90.53;102178.22;5050868;28;20496;-81
2021/04/12 11:02:58;;;;;;;2.90;1.88;;;;;;;2.74;90.45;102170.34;5046147;28;20049;-82
2021/04/12 11:05:27;;;;;;;5.25;2.10;;;;;;;2.76;91.00;102163.16;5032235;28;20048;-86
2021/04/12 11:07:57;;;;;;;5.45;3.08;;;;;;;2.97;93.13;102155.88;5031239;28;20037;-83
2021/04/12 11:10:37;;;;;;;4.95;3.33;;;;;;;3.06;93.17;102159.84;5036384;28;20041;-81
2021/04/12 11:13:10;;;;;;;6.90;3.67;;;;;;;3.45;94.63;102155.94;5030656;28;20052;-81
2021/04/12 11:15:38;;;;;;;4.95;3.28;;;;;;;3.73;92.80;102152.59;5036570;28;20076;-82
2021/04/12 11:18:07;;;;;;;4.17;2.87;;;;;;;4.01;90.60;102147.44;5048632;28;20068;-79
2021/04/12 11:20:44;;;;;;;4.38;1.60;;;;;;;4.11;85.44;102152.19;5039936;28;20493;-83
2021/04/12 11:23:21;;;;;;;6.20;2.63;;;;;;;4.39;85.08;102152.28;5046574;28;20037;-84
2021/04/12 11:25:52;;;;;;;5.65;2.60;;;;;;;4.61;86.42;102149.22;5047704;28;20159;-87
2021/04/12 11:28:30;;;;;;;6.35;3.70;;;;;;;4.94;87.46;102138.31;5028417;28;20522;-82
2021/04/12 11:31:15;;;;;;;4.10;2.40;;;;;;;4.95;84.30;102142.69;5032715;28;20444;-81
2021/04/12 11:33:59;;;;;;;6.10;3.30;;;;;;;4.91;82.45;102150.94;5043566;28;20049;-82
2021/04/12 11:36:46;;;;;;;5.18;2.78;;;;;;;4.93;83.00;102151.72;5031026;28;20056;-82
2021/04/12 11:39:22;;;;;;;6.32;2.33;;;;;;;5.01;82.38;102152.09;5025276;28;20044;-83
2021/04/12 11:41:54;;;;;;;5.70;2.60;;;;;;;4.96;81.77;102148.88;5046120;28;20049;-86
2021/04/12 11:44:25;;;;;;;3.58;2.35;;;;;;;5.04;82.85;102141.28;5044470;28;20032;-82
2021/04/12 11:47:10;;;;;;;3.90;2.58;;;;;;;5.11;82.67;102149.72;5050083;28;20041;-85
2021/04/12 11:49:41;;;;;;;4.80;2.70;;;;;;;5.24;80.63;102147.16;5049213;28;20128;-79
2021/04/12 11:52:08;;;;;;;4.43;2.72;;;;;;;5.43;82.62;102143.19;5048364;28;20136;-84
2021/04/12 11:55:09;;;;;;;6.68;2.70;;;;;;;5.59;82.87;102148.41;5047803;28;20063;-79
2021/04/12 11:58:02;;;;;;;5.95;3.30;;;;;;;5.74;83.70;102157.22;5020560;28;20076;-84
2021/04/12 12:01:00;;;;;;;5.15;2.47;;;;;;;5.85;82.82;102165.38;5026824;28;20061;-83
2021/04/12 12:03:50;;;;;;;5.65;2.40;;;;;;;5.72;81.13;102158.28;5009886;28;20042;-82
2021/04/12 12:06:28;;;;;;;4.13;3.22;;;;;;;5.59;83.62;102163.53;5022329;28;20048;-83
2021/04/12 12:09:21;;;;;;;4.85;2.80;;;;;;;5.33;84.38;102178.50;5042970;28;20095;-85
2021/04/12 12:12:09;;;;;;;4.28;2.42;;;;;;;4.93;83.58;102184.50;5045359;28;20123;-83
2021/04/12 12:14:53;;;;;;;5.60;2.63;;;;;;;4.99;85.21;102180.59;5029318;28;20041;-86
2021/04/12 12:17:24;;;;;;;173.48;84.38;;;;;;;4.70;85.23;102195.66;5029008;28;20033;-79
2021/04/12 12:20:04;;;;;;;9.55;3.90;;;;;;;4.60;88.34;102199.81;5044410;28;20397;-84
2021/04/12 12:22:50;;;;;;;59.13;36.05;;;;;;;4.56;90.41;102185.84;5025768;28;20454;-82
2021/04/12 12:25:42;;;;;;;16.90;9.75;;;;;;;4.48;91.05;102185.44;5027692;28;20049;-85
2021/04/12 12:28:30;;;;;;;9.85;5.57;;;;;;;4.67;92.36;102183.41;5045290;28;20099;-80
2021/04/12 12:31:32;;;;;;;6.95;3.90;;;;;;;4.85;89.27;102183.25;5050189;28;20036;-85
2021/04/12 12:34:27;;;;;;;8.77;3.70;;;;;;;5.25;88.56;102186.13;5045304;28;20127;-85
2021/04/12 12:36:57;;;;;;;7.75;3.80;;;;;;;5.65;89.27;102177.31;5046201;28;20559;-91
2021/04/12 12:39:35;;;;;;;5.13;2.60;;;;;;;5.76;79.01;102186.44;5047581;28;20512;-84
2021/04/12 12:42:06;;;;;;;3.88;2.53;;;;;;;5.72;80.12;102193.75;5043125;28;20526;-88
2021/04/12 12:44:34;;;;;;;4.25;2.80;;;;;;;5.59;80.19;102207.00;5028917;28;20087;-82
2021/04/12 12:47:26;;;;;;;6.30;3.40;;;;;;;5.20;81.39;102200.56;5043771;28;20135;-86
2021/04/12 12:49:56;;;;;;;8.02;4.90;;;;;;;4.85;84.43;102204.53;5040868;28;20064;-88
2021/04/12 12:52:26;;;;;;;6.68;3.85;;;;;;;4.92;86.76;102203.19;5041830;28;20063;-82